createdAt,value
2023-02-23T00:01:54.992Z,100885.63
2023-02-23T00:04:23.755Z,100880.97
2023-02-23T00:06:53.858Z,100881.22
2023-02-23T00:09:24.775Z,100877.00
2023-02-23T00:11:56.903Z,100873.22
2023-02-23T00:14:29.089Z,100870.09
2023-02-23T00:16:56.909Z,100873.53
2023-02-23T00:19:25.277Z,100873.34
2023-02-23T00:21:53.673Z,100869.59
2023-02-23T00:24:27.157Z,100869.59
2023-02-23T00:26:54.299Z,100873.22
2023-02-23T00:29:23.740Z,100876.94
2023-02-23T00:31:52.382Z,100872.00
2023-02-23T00:34:21.588Z,100868.22
2023-02-23T00:36:56.290Z,100864.25
2023-02-23T00:39:29.105Z,100861.97
2023-02-23T00:41:56.695Z,100862.34
2023-02-23T00:44:24.770Z,100859.94
2023-02-23T00:46:52.664Z,100851.41
2023-02-23T00:49:22.082Z,100851.47
2023-02-23T00:51:49.098Z,100847.19
2023-02-23T00:54:17.789Z,100852.47
2023-02-23T00:56:45.558Z,100850.66
2023-02-23T00:59:13.472Z,100853.31
2023-02-23T01:01:45.186Z,100848.84
2023-02-23T01:04:13.325Z,100849.47
2023-02-23T01:06:41.662Z,100862.03
2023-02-23T01:09:11.629Z,100854.78
2023-02-23T01:11:38.790Z,100845.09
2023-02-23T01:14:05.684Z,100843.34
2023-02-23T01:16:34.904Z,100845.28
2023-02-23T01:19:03.981Z,100840.84
2023-02-23T01:21:34.189Z,100837.94
2023-02-23T01:24:02.455Z,100835.88
2023-02-23T01:26:35.179Z,100826.53
2023-02-23T01:29:11.292Z,100836.94
2023-02-23T01:31:40.749Z,100830.03
2023-02-23T01:34:09.920Z,100834.50
2023-02-23T01:36:39.064Z,100825.97
2023-02-23T01:39:08.989Z,100819.94
2023-02-23T01:41:36.989Z,100819.81
2023-02-23T01:44:28.482Z,100830.56
2023-02-23T01:46:56.117Z,100830.75
2023-02-23T01:49:28.450Z,100829.75
2023-02-23T01:52:04.967Z,100830.84
2023-02-23T01:54:38.934Z,100836.66
2023-02-23T01:57:08.126Z,100838.44
2023-02-23T01:59:39.953Z,100836.91
2023-02-23T02:02:07.791Z,100837.66
2023-02-23T02:04:44.507Z,100846.38
2023-02-23T02:07:22.909Z,100846.72
2023-02-23T02:10:11.196Z,100842.94
2023-02-23T02:12:45.017Z,100849.94
2023-02-23T02:15:19.309Z,100839.72
2023-02-23T02:18:10.704Z,100840.69
2023-02-23T02:21:04.562Z,100842.97
2023-02-23T02:23:46.580Z,100852.19
2023-02-23T02:26:24.461Z,100859.44
2023-02-23T02:28:51.413Z,100855.97
2023-02-23T02:31:49.763Z,100850.69
2023-02-23T02:34:58.143Z,100848.88
2023-02-23T02:37:49.972Z,100861.34
2023-02-23T02:40:38.585Z,100853.63
2023-02-23T02:43:29.313Z,100855.53
2023-02-23T02:46:37.524Z,100855.78
2023-02-23T02:49:27.798Z,100864.72
2023-02-23T02:52:05.692Z,100864.50
2023-02-23T02:54:41.968Z,100861.78
2023-02-23T02:57:10.684Z,100869.72
2023-02-23T03:00:07.354Z,100868.25
2023-02-23T03:02:57.044Z,100867.31
2023-02-23T03:06:06.826Z,100878.41
2023-02-23T03:08:57.952Z,100883.84
2023-02-23T03:11:53.078Z,100882.19
2023-02-23T03:14:39.292Z,100866.66
2023-02-23T03:17:39.761Z,100873.22
2023-02-23T03:21:00.095Z,100877.44
2023-02-23T03:24:14.961Z,100878.50
2023-02-23T03:27:18.452Z,100881.03
2023-02-23T03:30:27.036Z,100885.44
2023-02-23T03:33:24.721Z,100885.34
2023-02-23T03:36:10.128Z,100877.81
2023-02-23T03:39:10.172Z,100887.44
2023-02-23T03:42:00.450Z,100892.34
2023-02-23T03:44:51.157Z,100893.63
2023-02-23T03:47:41.751Z,100896.41
2023-02-23T03:50:38.128Z,100890.03
2023-02-23T03:53:28.125Z,100891.19
2023-02-23T03:56:16.044Z,100890.38
2023-02-23T03:59:08.820Z,100893.09
2023-02-23T04:01:57.044Z,100896.56
2023-02-23T04:04:45.395Z,100907.09
2023-02-23T04:07:35.416Z,100913.16
2023-02-23T04:10:21.370Z,100909.47
2023-02-23T04:13:15.494Z,100905.97
2023-02-23T04:16:06.796Z,100904.78
2023-02-23T04:18:36.446Z,100903.50
2023-02-23T04:21:04.234Z,100900.06
2023-02-23T04:23:32.136Z,100910.50
2023-02-23T04:25:59.511Z,100906.06
2023-02-23T04:28:28.222Z,100909.78
2023-02-23T04:30:55.266Z,100908.19
2023-02-23T04:33:25.048Z,100903.09
2023-02-23T04:35:55.335Z,100912.72
2023-02-23T04:38:24.459Z,100917.16
2023-02-23T04:40:51.651Z,100915.28
2023-02-23T04:43:18.649Z,100908.31
2023-02-23T04:45:45.831Z,100919.78
2023-02-23T04:48:12.740Z,100919.44
2023-02-23T04:50:39.810Z,100925.59
2023-02-23T04:53:06.917Z,100923.03
2023-02-23T04:55:33.933Z,100921.28
2023-02-23T04:58:02.241Z,100925.19
2023-02-23T05:00:29.894Z,100921.91
2023-02-23T05:02:57.647Z,100925.47
2023-02-23T05:05:25.200Z,100926.13
2023-02-23T05:07:53.109Z,100932.31
2023-02-23T05:10:20.061Z,100930.66
2023-02-23T05:12:47.074Z,100945.28
2023-02-23T05:15:13.996Z,100939.66
2023-02-23T05:17:44.217Z,100937.19
2023-02-23T05:20:12.636Z,100938.25
2023-02-23T05:22:39.675Z,100949.75
2023-02-23T05:25:08.857Z,100956.94
2023-02-23T05:27:36.922Z,100947.38
2023-02-23T05:30:05.310Z,100952.69
2023-02-23T05:32:32.282Z,100959.63
2023-02-23T05:34:59.238Z,100959.41
2023-02-23T05:37:26.099Z,100971.50
2023-02-23T05:39:53.088Z,100968.00
2023-02-23T05:42:20.089Z,100973.81
2023-02-23T05:44:46.986Z,100977.91
2023-02-23T05:47:13.899Z,100976.03
2023-02-23T05:49:40.816Z,100978.50
2023-02-23T05:52:07.653Z,100990.78
2023-02-23T05:54:34.566Z,100992.69
2023-02-23T05:57:01.963Z,100989.44
2023-02-23T05:59:29.193Z,100987.88
2023-02-23T06:01:56.194Z,100990.53
2023-02-23T06:04:23.979Z,101000.25
2023-02-23T06:06:50.892Z,101001.44
2023-02-23T06:09:17.776Z,101000.84
2023-02-23T06:11:44.760Z,101003.56
2023-02-23T06:14:11.728Z,101008.72
2023-02-23T06:16:39.495Z,101010.41
2023-02-23T06:19:06.716Z,101011.53
2023-02-23T06:21:33.796Z,101016.03
2023-02-23T06:24:01.048Z,101016.91
2023-02-23T06:26:28.248Z,101018.66
2023-02-23T06:28:56.101Z,101017.72
2023-02-23T06:31:23.497Z,101025.53
2023-02-23T06:33:51.041Z,101028.00
2023-02-23T06:36:18.059Z,101035.00
2023-02-23T06:38:45.777Z,101031.38
2023-02-23T06:41:13.276Z,101035.13
2023-02-23T06:43:40.206Z,101032.47
2023-02-23T06:46:07.149Z,101038.44
2023-02-23T06:48:35.596Z,101046.31
2023-02-23T06:51:02.819Z,101053.38
2023-02-23T06:53:31.478Z,101052.50
2023-02-23T06:55:58.369Z,101047.31
2023-02-23T06:58:25.430Z,101050.75
2023-02-23T07:00:54.340Z,101051.66
2023-02-23T07:03:21.296Z,101045.69
2023-02-23T07:05:48.294Z,101054.31
2023-02-23T07:08:15.258Z,101061.44
2023-02-23T07:10:42.634Z,101057.22
2023-02-23T07:13:09.812Z,101057.22
2023-02-23T07:15:37.193Z,101064.28
2023-02-23T07:18:04.185Z,101059.88
2023-02-23T07:20:31.610Z,101065.06
2023-02-23T07:22:58.905Z,101059.84
2023-02-23T07:25:25.782Z,101058.97
2023-02-23T07:27:54.143Z,101064.78
2023-02-23T07:30:24.551Z,101067.44
2023-02-23T07:32:52.921Z,101062.00
2023-02-23T07:35:20.453Z,101061.16
2023-02-23T07:37:47.388Z,101063.88
2023-02-23T07:40:15.936Z,101060.44
2023-02-23T07:42:42.955Z,101067.56
2023-02-23T07:45:10.550Z,101065.00
2023-02-23T07:47:39.402Z,101068.25
2023-02-23T07:50:10.605Z,101076.00
2023-02-23T07:52:38.258Z,101073.56
2023-02-23T07:55:07.311Z,101073.00
2023-02-23T07:57:34.913Z,101076.59
2023-02-23T08:00:02.025Z,101081.00
2023-02-23T08:02:32.725Z,101087.00
2023-02-23T08:04:59.641Z,101079.22
2023-02-23T08:07:26.836Z,101091.44
2023-02-23T08:09:53.808Z,101088.75
2023-02-23T08:12:20.751Z,101094.16
2023-02-23T08:14:47.722Z,101089.78
2023-02-23T08:17:14.730Z,101091.53
2023-02-23T08:19:41.640Z,101096.81
2023-02-23T08:22:10.110Z,101095.84
2023-02-23T08:24:38.038Z,101103.69
2023-02-23T08:27:05.227Z,101107.28
2023-02-23T08:29:33.518Z,101109.81
2023-02-23T08:32:05.063Z,101111.47
2023-02-23T08:34:32.442Z,101110.72
2023-02-23T08:37:00.227Z,101117.91
2023-02-23T08:39:27.341Z,101120.50
2023-02-23T08:41:55.650Z,101126.59
2023-02-23T08:44:22.572Z,101114.34
2023-02-23T08:46:49.540Z,101114.25
2023-02-23T08:49:16.652Z,101123.09
2023-02-23T08:51:43.544Z,101121.41
2023-02-23T08:54:14.738Z,101121.25
2023-02-23T08:56:42.541Z,101123.09
2023-02-23T08:59:09.858Z,101129.25
2023-02-23T09:01:37.316Z,101137.19
2023-02-23T09:04:05.622Z,101144.03
2023-02-23T09:06:35.304Z,101147.56
2023-02-23T09:09:02.498Z,101149.38
2023-02-23T09:11:29.546Z,101135.44
2023-02-23T09:13:56.401Z,101153.00
2023-02-23T09:16:23.288Z,101144.84
2023-02-23T09:18:50.229Z,101156.19
2023-02-23T09:21:22.302Z,101148.09
2023-02-23T09:23:51.453Z,101156.41
2023-02-23T09:26:19.695Z,101165.25
2023-02-23T09:28:47.228Z,101170.53
2023-02-23T09:31:18.401Z,101179.34
2023-02-23T09:33:45.619Z,101177.47
2023-02-23T09:36:17.655Z,101167.91
2023-02-23T09:38:45.942Z,101172.88
2023-02-23T09:41:31.295Z,101163.53
2023-02-23T09:44:29.905Z,101169.47
2023-02-23T09:47:15.033Z,101175.59
2023-02-23T09:49:45.400Z,101166.94
2023-02-23T09:52:23.712Z,101178.38
2023-02-23T09:54:51.086Z,101178.47
2023-02-23T09:57:33.704Z,101179.25
2023-02-23T10:00:01.211Z,101192.25
2023-02-23T10:02:39.837Z,101176.69
2023-02-23T10:05:11.886Z,101182.84
2023-02-23T10:07:38.799Z,101185.50
2023-02-23T10:10:21.454Z,101188.03
2023-02-23T10:13:22.312Z,101186.00
2023-02-23T10:16:14.098Z,101185.00
2023-02-23T10:18:52.012Z,101189.25
2023-02-23T10:21:30.307Z,101184.81
2023-02-23T10:24:17.969Z,101187.53
2023-02-23T10:26:52.108Z,101180.47
2023-02-23T10:29:32.700Z,101190.84
2023-02-23T10:32:15.302Z,101174.44
2023-02-23T10:34:45.072Z,101182.41
2023-02-23T10:37:13.394Z,101170.09
2023-02-23T10:39:42.328Z,101187.47
2023-02-23T10:42:15.817Z,101175.94
2023-02-23T10:44:44.968Z,101190.22
2023-02-23T10:47:19.511Z,101181.34
2023-02-23T10:49:47.979Z,101198.00
2023-02-23T10:52:41.706Z,101187.31
2023-02-23T10:55:26.341Z,101179.00
2023-02-23T10:58:18.754Z,101180.22
2023-02-23T11:00:53.528Z,101193.34
2023-02-23T11:03:33.842Z,101189.91
2023-02-23T11:06:00.893Z,101188.00
2023-02-23T11:08:30.689Z,101194.91
2023-02-23T11:11:15.923Z,101179.09
2023-02-23T11:13:44.544Z,101181.03
2023-02-23T11:16:30.440Z,101181.91
2023-02-23T11:19:00.916Z,101183.72
2023-02-23T11:21:35.143Z,101185.50
2023-02-23T11:24:27.709Z,101178.44
2023-02-23T11:27:00.478Z,101167.03
2023-02-23T11:29:41.113Z,101190.66
2023-02-23T11:32:13.721Z,101180.91
2023-02-23T11:34:43.453Z,101177.25
2023-02-23T11:37:14.584Z,101194.84
2023-02-23T11:39:55.046Z,101194.78
2023-02-23T11:42:25.506Z,101184.41
2023-02-23T11:45:04.371Z,101187.88
2023-02-23T11:47:35.136Z,101194.88
2023-02-23T11:50:03.964Z,101193.16
2023-02-23T11:52:31.486Z,101201.97
2023-02-23T11:55:07.102Z,101191.38
2023-02-23T11:57:36.079Z,101207.25
2023-02-23T12:00:11.741Z,101208.25
2023-02-23T12:02:55.826Z,101205.28
2023-02-23T12:05:26.695Z,101200.81
2023-02-23T12:08:20.065Z,101196.69
2023-02-23T12:10:58.844Z,101194.03
2023-02-23T12:13:28.161Z,101193.13
2023-02-23T12:16:05.461Z,101194.00
2023-02-23T12:18:56.067Z,101198.28
2023-02-23T12:21:25.805Z,101196.63
2023-02-23T12:24:19.412Z,101195.69
2023-02-23T12:27:16.690Z,101203.41
2023-02-23T12:30:09.404Z,101210.50
2023-02-23T12:32:58.028Z,101209.38
2023-02-23T12:35:46.918Z,101210.03
2023-02-23T12:38:27.915Z,101216.50
2023-02-23T12:41:11.320Z,101208.63
2023-02-23T12:43:51.662Z,101214.81
2023-02-23T12:46:30.545Z,101205.28
2023-02-23T12:49:21.705Z,101215.66
2023-02-23T12:51:58.349Z,101220.78
2023-02-23T12:54:26.383Z,101233.41
2023-02-23T12:57:14.591Z,101236.69
2023-02-23T13:00:10.192Z,101222.41
2023-02-23T13:03:18.483Z,101228.16
2023-02-23T13:06:01.752Z,101220.19
2023-02-23T13:09:00.567Z,101202.22
2023-02-23T13:11:57.088Z,101231.38
2023-02-23T13:15:07.562Z,101239.75
2023-02-23T13:18:08.397Z,101223.63
2023-02-23T13:20:50.731Z,101235.81
2023-02-23T13:23:55.955Z,101236.25
2023-02-23T13:26:45.444Z,101243.31
2023-02-23T13:29:37.200Z,101248.00
2023-02-23T13:32:06.565Z,101241.78
2023-02-23T13:34:39.497Z,101245.34
2023-02-23T13:37:08.500Z,101247.09
2023-02-23T13:39:41.588Z,101242.88
2023-02-23T13:42:20.176Z,101231.78
2023-02-23T13:45:01.426Z,101258.44
2023-02-23T13:47:38.853Z,101257.91
2023-02-23T13:50:37.899Z,101257.00
2023-02-23T13:53:07.777Z,101259.09
2023-02-23T13:55:49.917Z,101260.53
2023-02-23T13:58:30.365Z,101267.47
2023-02-23T14:01:12.045Z,101257.88
2023-02-23T14:03:52.362Z,101268.09
2023-02-23T14:06:21.233Z,101263.25
2023-02-23T14:08:54.926Z,101260.44
2023-02-23T14:11:51.009Z,101268.28
2023-02-23T14:14:33.288Z,101274.22
2023-02-23T14:17:41.609Z,101267.50
2023-02-23T14:20:24.382Z,101274.38
2023-02-23T14:23:28.703Z,101271.56
2023-02-23T14:26:12.797Z,101280.19
2023-02-23T14:28:41.992Z,101287.31
2023-02-23T14:31:16.015Z,101277.00
2023-02-23T14:33:43.040Z,101267.84
2023-02-23T14:36:22.322Z,101274.75
2023-02-23T14:39:01.188Z,101266.75
2023-02-23T14:41:34.198Z,101281.75
2023-02-23T14:44:34.491Z,101272.09
2023-02-23T14:47:09.258Z,101264.88
2023-02-23T14:49:40.752Z,101275.75
2023-02-23T14:52:21.424Z,101275.72
2023-02-23T14:54:48.496Z,101279.78
2023-02-23T14:57:24.935Z,101273.25
2023-02-23T15:00:00.287Z,101280.16
2023-02-23T15:02:28.435Z,101289.63
2023-02-23T15:04:55.548Z,101279.25
2023-02-23T15:07:32.533Z,101277.47
2023-02-23T15:10:01.430Z,101284.78
2023-02-23T15:12:36.512Z,101270.91
2023-02-23T15:15:14.043Z,101287.75
2023-02-23T15:17:44.087Z,101295.13
2023-02-23T15:20:18.941Z,101300.41
2023-02-23T15:22:53.809Z,101297.03
2023-02-23T15:25:24.243Z,101301.22
2023-02-23T15:27:53.201Z,101307.97
2023-02-23T15:30:32.565Z,101317.75
2023-02-23T15:33:11.635Z,101303.91
2023-02-23T15:36:07.239Z,101316.97
2023-02-23T15:38:43.860Z,101317.16
2023-02-23T15:41:33.165Z,101322.69
2023-02-23T15:44:14.789Z,101312.19
2023-02-23T15:46:44.054Z,101316.53
2023-02-23T15:49:14.397Z,101313.28
2023-02-23T15:51:49.069Z,101325.88
2023-02-23T15:54:21.780Z,101328.41
2023-02-23T15:56:50.725Z,101323.91
2023-02-23T15:59:24.025Z,101332.34
2023-02-23T16:01:57.293Z,101329.97
2023-02-23T16:04:31.440Z,101343.81
2023-02-23T16:07:28.086Z,101343.38
2023-02-23T16:10:03.777Z,101337.59
2023-02-23T16:12:35.174Z,101349.34
2023-02-23T16:15:06.129Z,101349.94
2023-02-23T16:17:44.849Z,101357.16
2023-02-23T16:20:34.762Z,101338.75
2023-02-23T16:23:03.129Z,101343.22
2023-02-23T16:25:31.560Z,101345.38
2023-02-23T16:28:21.676Z,101360.66
2023-02-23T16:30:59.122Z,101355.44
2023-02-23T16:33:42.150Z,101359.75
2023-02-23T16:36:12.395Z,101365.91
2023-02-23T16:38:48.947Z,101375.63
2023-02-23T16:41:19.564Z,101370.13
2023-02-23T16:43:49.129Z,101357.84
2023-02-23T16:46:22.387Z,101365.28
2023-02-23T16:48:49.624Z,101365.75
2023-02-23T16:51:19.068Z,101367.91
2023-02-23T16:53:46.242Z,101375.78
2023-02-23T16:56:17.270Z,101364.75
2023-02-23T16:58:47.406Z,101364.91
2023-02-23T17:01:16.917Z,101371.97
2023-02-23T17:03:52.776Z,101378.09
2023-02-23T17:06:23.713Z,101390.75
2023-02-23T17:08:58.049Z,101394.59
2023-02-23T17:11:26.042Z,101393.47
2023-02-23T17:13:53.051Z,101402.00
2023-02-23T17:16:20.449Z,101403.81
2023-02-23T17:18:47.659Z,101399.88
2023-02-23T17:21:15.231Z,101395.59
2023-02-23T17:23:48.306Z,101401.31
2023-02-23T17:26:15.946Z,101399.00
2023-02-23T17:28:43.026Z,101406.72
2023-02-23T17:31:10.305Z,101404.22
2023-02-23T17:33:37.810Z,101415.38
2023-02-23T17:36:07.482Z,101392.88
2023-02-23T17:38:34.888Z,101397.28
2023-02-23T17:41:06.793Z,101399.19
2023-02-23T17:43:34.993Z,101399.03
2023-02-23T17:46:02.371Z,101405.97
2023-02-23T17:48:30.531Z,101397.81
2023-02-23T17:51:03.704Z,101403.81
2023-02-23T17:53:31.718Z,101403.19
2023-02-23T17:55:59.173Z,101401.69
2023-02-23T17:58:26.487Z,101400.13
2023-02-23T18:00:55.585Z,101399.94
2023-02-23T18:03:23.338Z,101397.63
2023-02-23T18:05:50.582Z,101393.38
2023-02-23T18:08:20.192Z,101400.47
2023-02-23T18:10:55.095Z,101401.81
2023-02-23T18:13:23.385Z,101395.41
2023-02-23T18:15:52.733Z,101399.78
2023-02-23T18:18:20.807Z,101394.38
2023-02-23T18:20:55.854Z,101395.72
2023-02-23T18:23:24.203Z,101394.00
2023-02-23T18:25:51.191Z,101398.13
2023-02-23T18:28:18.651Z,101398.94
2023-02-23T18:30:45.741Z,101401.81
2023-02-23T18:33:13.517Z,101405.00
2023-02-23T18:35:43.090Z,101408.31
2023-02-23T18:38:12.175Z,101399.03
2023-02-23T18:40:40.441Z,101413.13
2023-02-23T18:43:08.342Z,101406.22
2023-02-23T18:45:35.433Z,101408.69
2023-02-23T18:48:02.704Z,101411.75
2023-02-23T18:50:29.720Z,101408.28
2023-02-23T18:52:58.287Z,101405.63
2023-02-23T18:55:25.178Z,101419.97
2023-02-23T18:57:52.918Z,101413.97
2023-02-23T19:00:20.732Z,101416.59
2023-02-23T19:02:48.344Z,101418.88
2023-02-23T19:05:18.549Z,101418.22
2023-02-23T19:07:47.182Z,101421.66
2023-02-23T19:10:15.286Z,101419.75
2023-02-23T19:12:42.652Z,101421.44
2023-02-23T19:15:10.344Z,101428.59
2023-02-23T19:17:37.326Z,101423.06
2023-02-23T19:20:08.255Z,101426.81
2023-02-23T19:22:35.341Z,101429.09
2023-02-23T19:25:02.520Z,101433.75
2023-02-23T19:27:29.448Z,101437.06
2023-02-23T19:29:56.430Z,101446.13
2023-02-23T19:32:23.423Z,101439.63
2023-02-23T19:34:50.754Z,101446.50
2023-02-23T19:37:17.722Z,101442.06
2023-02-23T19:39:46.498Z,101446.78
2023-02-23T19:42:18.342Z,101447.72
2023-02-23T19:44:45.280Z,101449.91
2023-02-23T19:47:12.208Z,101443.88
2023-02-23T19:49:39.074Z,101443.63
2023-02-23T19:52:06.030Z,101441.22
2023-02-23T19:54:37.825Z,101442.28
2023-02-23T19:57:04.879Z,101441.66
2023-02-23T19:59:31.806Z,101443.44
2023-02-23T20:01:58.767Z,101434.44
2023-02-23T20:04:27.130Z,101435.19
2023-02-23T20:06:54.082Z,101435.72
2023-02-23T20:09:20.966Z,101429.69
2023-02-23T20:11:48.442Z,101431.28
2023-02-23T20:14:15.672Z,101421.13
2023-02-23T20:16:42.652Z,101425.50
2023-02-23T20:19:11.773Z,101428.59
2023-02-23T20:21:39.818Z,101428.22
2023-02-23T20:24:07.255Z,101433.44
2023-02-23T20:26:37.302Z,101429.28
2023-02-23T20:29:11.165Z,101430.59
2023-02-23T20:31:41.734Z,101433.81
2023-02-23T20:34:11.197Z,101427.19
2023-02-23T20:36:38.996Z,101427.09
2023-02-23T20:39:05.964Z,101421.88
2023-02-23T20:41:33.039Z,101425.34
2023-02-23T20:44:01.308Z,101421.69
2023-02-23T20:46:30.612Z,101427.75
2023-02-23T20:48:59.465Z,101418.06
2023-02-23T20:51:27.804Z,101410.91
2023-02-23T20:53:54.948Z,101423.44
2023-02-23T20:56:22.232Z,101422.66
2023-02-23T20:58:49.664Z,101406.50
2023-02-23T21:01:22.743Z,101409.84
2023-02-23T21:03:51.706Z,101416.97
2023-02-23T21:06:20.215Z,101412.00
2023-02-23T21:08:51.057Z,101410.88
2023-02-23T21:11:20.231Z,101410.66
2023-02-23T21:13:47.908Z,101407.53
2023-02-23T21:16:17.208Z,101407.19
2023-02-23T21:18:44.934Z,101409.53
2023-02-23T21:21:15.499Z,101419.75
2023-02-23T21:23:48.863Z,101409.16
2023-02-23T21:26:16.241Z,101413.28
2023-02-23T21:28:46.867Z,101401.75
2023-02-23T21:31:14.591Z,101399.31
2023-02-23T21:33:43.291Z,101392.50
2023-02-23T21:36:11.362Z,101395.69
2023-02-23T21:38:40.046Z,101394.13
2023-02-23T21:41:08.291Z,101391.09
2023-02-23T21:43:36.482Z,101391.25
2023-02-23T21:46:08.680Z,101397.56
2023-02-23T21:48:35.657Z,101393.06
2023-02-23T21:51:09.343Z,101389.13
2023-02-23T21:53:37.669Z,101383.72
2023-02-23T21:56:11.861Z,101377.22
2023-02-23T21:58:55.682Z,101376.81
2023-02-23T22:01:24.820Z,101382.06
2023-02-23T22:03:51.800Z,101377.94
2023-02-23T22:06:21.334Z,101379.81
2023-02-23T22:08:51.516Z,101367.72
2023-02-23T22:11:21.265Z,101368.81
2023-02-23T22:13:50.012Z,101371.44
2023-02-23T22:16:19.324Z,101378.13
2023-02-23T22:18:46.723Z,101376.13
2023-02-23T22:21:14.258Z,101376.28
2023-02-23T22:23:43.867Z,101369.44
2023-02-23T22:26:10.982Z,101372.59
2023-02-23T22:28:38.083Z,101360.78
2023-02-23T22:31:11.215Z,101366.94
2023-02-23T22:33:41.615Z,101366.00
2023-02-23T22:36:13.388Z,101358.47
2023-02-23T22:38:42.115Z,101360.00
2023-02-23T22:41:10.365Z,101358.25
2023-02-23T22:43:38.739Z,101362.22
2023-02-23T22:46:08.217Z,101351.25
2023-02-23T22:48:36.163Z,101343.47
2023-02-23T22:51:03.327Z,101341.81
2023-02-23T22:53:31.040Z,101344.50
2023-02-23T22:55:57.969Z,101352.38
2023-02-23T22:58:29.072Z,101350.00
2023-02-23T23:01:23.145Z,101341.88
2023-02-23T23:03:50.029Z,101349.69
2023-02-23T23:06:23.191Z,101344.63
2023-02-23T23:08:52.506Z,101333.34
2023-02-23T23:11:26.058Z,101334.22
2023-02-23T23:13:57.761Z,101322.88
2023-02-23T23:16:32.215Z,101307.53
2023-02-23T23:19:12.315Z,101304.63
2023-02-23T23:21:41.587Z,101308.38
2023-02-23T23:24:09.786Z,101307.22
2023-02-23T23:26:39.844Z,101303.00
2023-02-23T23:29:10.295Z,101302.13
2023-02-23T23:31:39.125Z,101305.34
2023-02-23T23:34:09.631Z,101300.47
2023-02-23T23:36:53.359Z,101298.53
2023-02-23T23:39:22.576Z,101300.00
2023-02-23T23:41:50.441Z,101292.50
2023-02-23T23:44:23.053Z,101288.22
2023-02-23T23:46:51.026Z,101288.03
2023-02-23T23:49:20.779Z,101278.44
2023-02-23T23:51:52.785Z,101280.25
2023-02-23T23:54:22.526Z,101275.88
2023-02-23T23:56:51.040Z,101275.81
2023-02-23T23:59:21.450Z,101276.69
